sensor_id;sensor_type;location;lat;lon;timestamp;temperature;humidity
14786;DHT22;7484;49.906;9.058;2023-05-21T00:00:14;14.50;99.90
14786;DHT22;7484;49.906;9.058;2023-05-21T00:02:41;14.50;99.90
14786;DHT22;7484;49.906;9.058;2023-05-21T00:05:08;14.50;99.90
14786;DHT22;7484;49.906;9.058;2023-05-21T00:07:37;14.60;99.90
14786;DHT22;7484;49.906;9.058;2023-05-21T00:10:04;14.60;99.90
14786;DHT22;7484;49.906;9.058;2023-05-21T00:12:32;14.50;99.90
14786;DHT22;7484;49.906;9.058;2023-05-21T00:14:59;14.50;99.90
14786;DHT22;7484;49.906;9.058;2023-05-21T00:17:26;14.60;99.90
14786;DHT22;7484;49.906;9.058;2023-05-21T00:19:53;14.80;99.90
14786;DHT22;7484;49.906;9.058;2023-05-21T00:22:21;14.80;99.90
14786;DHT22;7484;49.906;9.058;2023-05-21T00:24:49;14.70;99.90
14786;DHT22;7484;49.906;9.058;2023-05-21T00:27:16;14.80;99.90
14786;DHT22;7484;49.906;9.058;2023-05-21T00:29:43;14.80;99.90
14786;DHT22;7484;49.906;9.058;2023-05-21T00:32:09;14.70;99.90
14786;DHT22;7484;49.906;9.058;2023-05-21T00:34:36;14.70;99.90
14786;DHT22;7484;49.906;9.058;2023-05-21T00:37:03;14.70;99.90
14786;DHT22;7484;49.906;9.058;2023-05-21T00:39:30;14.60;99.90
14786;DHT22;7484;49.906;9.058;2023-05-21T00:41:58;14.60;99.90
14786;DHT22;7484;49.906;9.058;2023-05-21T00:44:25;14.70;99.90
14786;DHT22;7484;49.906;9.058;2023-05-21T00:46:52;14.80;99.90
14786;DHT22;7484;49.906;9.058;2023-05-21T00:49:19;14.70;99.90
14786;DHT22;7484;49.906;9.058;2023-05-21T00:51:48;14.80;99.90
14786;DHT22;7484;49.906;9.058;2023-05-21T00:54:16;14.70;99.90
14786;DHT22;7484;49.906;9.058;2023-05-21T00:56:43;14.80;99.90
14786;DHT22;7484;49.906;9.058;2023-05-21T00:59:12;14.70;99.90
14786;DHT22;7484;49.906;9.058;2023-05-21T01:01:42;14.70;99.90
14786;DHT22;7484;49.906;9.058;2023-05-21T01:04:10;14.60;99.90
14786;DHT22;7484;49.906;9.058;2023-05-21T01:06:37;14.70;99.90
14786;DHT22;7484;49.906;9.058;2023-05-21T01:09:04;14.80;99.90
14786;DHT22;7484;49.906;9.058;2023-05-21T01:11:37;14.70;99.90
14786;DHT22;7484;49.906;9.058;2023-05-21T01:14:06;14.70;99.90
14786;DHT22;7484;49.906;9.058;2023-05-21T01:16:36;14.70;99.90
14786;DHT22;7484;49.906;9.058;2023-05-21T01:19:04;14.70;99.90
14786;DHT22;7484;49.906;9.058;2023-05-21T01:21:32;14.80;99.90
14786;DHT22;7484;49.906;9.058;2023-05-21T01:24:04;15.00;99.90
14786;DHT22;7484;49.906;9.058;2023-05-21T01:26:32;15.00;99.90
14786;DHT22;7484;49.906;9.058;2023-05-21T01:29:03;15.00;99.90
14786;DHT22;7484;49.906;9.058;2023-05-21T01:31:44;14.80;99.90
14786;DHT22;7484;49.906;9.058;2023-05-21T01:34:14;14.90;99.90
14786;DHT22;7484;49.906;9.058;2023-05-21T01:36:47;14.80;99.90
14786;DHT22;7484;49.906;9.058;2023-05-21T01:39:19;14.80;99.90
14786;DHT22;7484;49.906;9.058;2023-05-21T01:41:49;14.90;99.90
14786;DHT22;7484;49.906;9.058;2023-05-21T01:44:19;15.00;99.90
14786;DHT22;7484;49.906;9.058;2023-05-21T01:46:46;15.00;99.90
14786;DHT22;7484;49.906;9.058;2023-05-21T01:49:14;14.90;99.90
14786;DHT22;7484;49.906;9.058;2023-05-21T01:51:42;14.80;99.90
14786;DHT22;7484;49.906;9.058;2023-05-21T01:54:09;14.70;99.90
14786;DHT22;7484;49.906;9.058;2023-05-21T01:56:37;14.60;99.90
14786;DHT22;7484;49.906;9.058;2023-05-21T01:59:04;14.60;99.90
14786;DHT22;7484;49.906;9.058;2023-05-21T02:01:31;14.60;99.90
14786;DHT22;7484;49.906;9.058;2023-05-21T02:03:58;14.60;99.90
14786;DHT22;7484;49.906;9.058;2023-05-21T02:06:24;14.60;99.90
14786;DHT22;7484;49.906;9.058;2023-05-21T02:08:51;14.60;99.90
14786;DHT22;7484;49.906;9.058;2023-05-21T02:11:18;14.70;99.90
14786;DHT22;7484;49.906;9.058;2023-05-21T02:13:46;14.70;99.90
14786;DHT22;7484;49.906;9.058;2023-05-21T02:16:13;14.80;99.90
14786;DHT22;7484;49.906;9.058;2023-05-21T02:18:40;14.90;99.90
14786;DHT22;7484;49.906;9.058;2023-05-21T02:21:08;14.90;99.90
14786;DHT22;7484;49.906;9.058;2023-05-21T02:23:35;14.80;99.90
14786;DHT22;7484;49.906;9.058;2023-05-21T02:26:02;14.80;99.90
14786;DHT22;7484;49.906;9.058;2023-05-21T02:28:28;14.60;99.90
14786;DHT22;7484;49.906;9.058;2023-05-21T02:30:58;14.50;99.90
14786;DHT22;7484;49.906;9.058;2023-05-21T02:33:25;14.50;99.90
14786;DHT22;7484;49.906;9.058;2023-05-21T02:35:52;14.70;99.90
14786;DHT22;7484;49.906;9.058;2023-05-21T02:38:18;14.60;99.90
14786;DHT22;7484;49.906;9.058;2023-05-21T02:40:48;14.60;99.90
14786;DHT22;7484;49.906;9.058;2023-05-21T02:43:16;14.60;99.90
14786;DHT22;7484;49.906;9.058;2023-05-21T02:45:43;14.50;99.90
14786;DHT22;7484;49.906;9.058;2023-05-21T02:48:11;14.50;99.90
14786;DHT22;7484;49.906;9.058;2023-05-21T02:50:40;14.50;99.90
14786;DHT22;7484;49.906;9.058;2023-05-21T02:53:07;14.60;99.90
14786;DHT22;7484;49.906;9.058;2023-05-21T02:55:34;14.70;99.90
14786;DHT22;7484;49.906;9.058;2023-05-21T02:58:01;14.80;99.90
14786;DHT22;7484;49.906;9.058;2023-05-21T03:00:28;14.70;99.90
14786;DHT22;7484;49.906;9.058;2023-05-21T03:02:55;14.60;99.90
14786;DHT22;7484;49.906;9.058;2023-05-21T03:05:23;14.50;99.90
14786;DHT22;7484;49.906;9.058;2023-05-21T03:07:50;14.50;99.90
14786;DHT22;7484;49.906;9.058;2023-05-21T03:10:17;14.50;99.90
14786;DHT22;7484;49.906;9.058;2023-05-21T03:12:44;14.50;99.90
14786;DHT22;7484;49.906;9.058;2023-05-21T03:15:11;14.60;99.90
14786;DHT22;7484;49.906;9.058;2023-05-21T03:17:39;14.60;99.90
14786;DHT22;7484;49.906;9.058;2023-05-21T03:20:07;14.70;99.90
14786;DHT22;7484;49.906;9.058;2023-05-21T03:22:41;14.70;99.90
14786;DHT22;7484;49.906;9.058;2023-05-21T03:25:09;14.70;99.90
14786;DHT22;7484;49.906;9.058;2023-05-21T03:27:36;14.50;99.90
14786;DHT22;7484;49.906;9.058;2023-05-21T03:30:06;14.50;99.90
14786;DHT22;7484;49.906;9.058;2023-05-21T03:32:42;14.60;99.90
14786;DHT22;7484;49.906;9.058;2023-05-21T03:35:09;14.50;99.90
14786;DHT22;7484;49.906;9.058;2023-05-21T03:37:36;14.50;99.90
14786;DHT22;7484;49.906;9.058;2023-05-21T03:40:06;14.40;99.90
14786;DHT22;7484;49.906;9.058;2023-05-21T03:42:32;14.40;99.90
14786;DHT22;7484;49.906;9.058;2023-05-21T03:44:59;14.40;99.90
14786;DHT22;7484;49.906;9.058;2023-05-21T03:47:35;14.40;99.90
14786;DHT22;7484;49.906;9.058;2023-05-21T03:50:06;14.40;99.90
14786;DHT22;7484;49.906;9.058;2023-05-21T03:52:34;14.40;99.90
14786;DHT22;7484;49.906;9.058;2023-05-21T03:55:01;14.40;99.90
14786;DHT22;7484;49.906;9.058;2023-05-21T03:57:29;14.30;99.90
14786;DHT22;7484;49.906;9.058;2023-05-21T03:59:56;14.20;99.90
14786;DHT22;7484;49.906;9.058;2023-05-21T04:02:25;14.10;99.90
14786;DHT22;7484;49.906;9.058;2023-05-21T04:04:52;14.10;99.90
14786;DHT22;7484;49.906;9.058;2023-05-21T04:07:20;14.00;99.90
14786;DHT22;7484;49.906;9.058;2023-05-21T04:09:47;14.10;99.90
14786;DHT22;7484;49.906;9.058;2023-05-21T04:12:14;14.00;99.90
14786;DHT22;7484;49.906;9.058;2023-05-21T04:14:43;14.00;99.90
14786;DHT22;7484;49.906;9.058;2023-05-21T04:17:10;14.00;99.90
14786;DHT22;7484;49.906;9.058;2023-05-21T04:19:38;14.00;99.90
14786;DHT22;7484;49.906;9.058;2023-05-21T04:22:05;14.00;99.90
14786;DHT22;7484;49.906;9.058;2023-05-21T04:24:32;14.00;99.90
14786;DHT22;7484;49.906;9.058;2023-05-21T04:27:21;14.10;99.90
14786;DHT22;7484;49.906;9.058;2023-05-21T04:29:51;14.10;99.90
14786;DHT22;7484;49.906;9.058;2023-05-21T04:32:21;14.20;99.90
14786;DHT22;7484;49.906;9.058;2023-05-21T04:34:48;14.30;99.90
14786;DHT22;7484;49.906;9.058;2023-05-21T04:37:15;14.40;99.90
14786;DHT22;7484;49.906;9.058;2023-05-21T04:39:43;14.50;99.90
14786;DHT22;7484;49.906;9.058;2023-05-21T04:42:10;14.50;99.90
14786;DHT22;7484;49.906;9.058;2023-05-21T04:44:37;14.50;99.90
14786;DHT22;7484;49.906;9.058;2023-05-21T04:47:06;14.50;99.90
14786;DHT22;7484;49.906;9.058;2023-05-21T04:49:34;14.50;99.90
14786;DHT22;7484;49.906;9.058;2023-05-21T04:52:01;14.70;99.90
14786;DHT22;7484;49.906;9.058;2023-05-21T04:54:28;14.80;99.90
14786;DHT22;7484;49.906;9.058;2023-05-21T04:56:55;14.90;99.90
14786;DHT22;7484;49.906;9.058;2023-05-21T04:59:22;15.00;99.90
14786;DHT22;7484;49.906;9.058;2023-05-21T05:01:49;15.10;99.90
14786;DHT22;7484;49.906;9.058;2023-05-21T05:04:17;15.20;99.90
14786;DHT22;7484;49.906;9.058;2023-05-21T05:06:43;15.30;99.90
14786;DHT22;7484;49.906;9.058;2023-05-21T05:09:10;15.40;99.90
14786;DHT22;7484;49.906;9.058;2023-05-21T05:11:37;15.50;99.90
14786;DHT22;7484;49.906;9.058;2023-05-21T05:14:04;15.60;99.90
14786;DHT22;7484;49.906;9.058;2023-05-21T05:16:31;15.60;99.90
14786;DHT22;7484;49.906;9.058;2023-05-21T05:18:58;15.60;99.90
14786;DHT22;7484;49.906;9.058;2023-05-21T05:21:27;15.70;99.90
14786;DHT22;7484;49.906;9.058;2023-05-21T05:23:53;15.60;99.90
14786;DHT22;7484;49.906;9.058;2023-05-21T05:26:24;15.60;99.90
14786;DHT22;7484;49.906;9.058;2023-05-21T05:28:51;15.50;99.90
14786;DHT22;7484;49.906;9.058;2023-05-21T05:31:18;15.50;99.90
14786;DHT22;7484;49.906;9.058;2023-05-21T05:33:45;15.50;99.90
14786;DHT22;7484;49.906;9.058;2023-05-21T05:36:12;15.60;99.90
14786;DHT22;7484;49.906;9.058;2023-05-21T05:38:40;15.70;99.90
14786;DHT22;7484;49.906;9.058;2023-05-21T05:41:07;15.80;99.90
14786;DHT22;7484;49.906;9.058;2023-05-21T05:43:34;15.90;99.90
14786;DHT22;7484;49.906;9.058;2023-05-21T05:46:01;16.00;99.90
14786;DHT22;7484;49.906;9.058;2023-05-21T05:48:27;16.20;99.90
14786;DHT22;7484;49.906;9.058;2023-05-21T05:50:55;16.40;99.90
14786;DHT22;7484;49.906;9.058;2023-05-21T05:53:24;16.60;99.90
14786;DHT22;7484;49.906;9.058;2023-05-21T05:55:52;16.80;99.90
14786;DHT22;7484;49.906;9.058;2023-05-21T05:58:19;16.90;99.90
14786;DHT22;7484;49.906;9.058;2023-05-21T06:01:09;17.00;99.90
14786;DHT22;7484;49.906;9.058;2023-05-21T06:03:36;17.20;99.90
14786;DHT22;7484;49.906;9.058;2023-05-21T06:06:10;17.30;99.90
14786;DHT22;7484;49.906;9.058;2023-05-21T06:08:37;17.50;99.90
14786;DHT22;7484;49.906;9.058;2023-05-21T06:11:06;17.70;99.90
14786;DHT22;7484;49.906;9.058;2023-05-21T06:13:33;18.10;99.90
14786;DHT22;7484;49.906;9.058;2023-05-21T06:16:01;18.40;99.90
14786;DHT22;7484;49.906;9.058;2023-05-21T06:18:28;18.70;99.90
14786;DHT22;7484;49.906;9.058;2023-05-21T06:20:55;19.00;99.90
14786;DHT22;7484;49.906;9.058;2023-05-21T06:23:22;19.30;99.90
14786;DHT22;7484;49.906;9.058;2023-05-21T06:25:49;19.50;99.90
14786;DHT22;7484;49.906;9.058;2023-05-21T06:28:18;19.70;99.90
14786;DHT22;7484;49.906;9.058;2023-05-21T06:30:47;19.90;99.90
14786;DHT22;7484;49.906;9.058;2023-05-21T06:33:14;20.00;99.90
14786;DHT22;7484;49.906;9.058;2023-05-21T06:35:41;20.10;99.90
14786;DHT22;7484;49.906;9.058;2023-05-21T06:38:09;20.10;99.90
14786;DHT22;7484;49.906;9.058;2023-05-21T06:40:36;20.20;99.90
14786;DHT22;7484;49.906;9.058;2023-05-21T06:43:04;20.40;99.90
14786;DHT22;7484;49.906;9.058;2023-05-21T06:45:52;20.60;99.90
14786;DHT22;7484;49.906;9.058;2023-05-21T06:48:37;20.80;99.90
14786;DHT22;7484;49.906;9.058;2023-05-21T06:51:04;20.80;99.90
14786;DHT22;7484;49.906;9.058;2023-05-21T06:53:31;20.90;99.90
14786;DHT22;7484;49.906;9.058;2023-05-21T06:55:59;21.10;99.90
14786;DHT22;7484;49.906;9.058;2023-05-21T06:58:34;21.20;99.90
14786;DHT22;7484;49.906;9.058;2023-05-21T07:01:02;21.20;99.90
14786;DHT22;7484;49.906;9.058;2023-05-21T07:03:29;21.20;99.90
14786;DHT22;7484;49.906;9.058;2023-05-21T07:05:56;21.10;99.90
14786;DHT22;7484;49.906;9.058;2023-05-21T07:08:22;20.90;99.90
14786;DHT22;7484;49.906;9.058;2023-05-21T07:10:49;20.90;99.90
14786;DHT22;7484;49.906;9.058;2023-05-21T07:13:17;20.90;99.90
14786;DHT22;7484;49.906;9.058;2023-05-21T07:15:43;21.00;99.90
14786;DHT22;7484;49.906;9.058;2023-05-21T07:18:11;21.10;99.90
14786;DHT22;7484;49.906;9.058;2023-05-21T07:20:38;21.20;99.90
14786;DHT22;7484;49.906;9.058;2023-05-21T07:23:08;21.20;99.90
14786;DHT22;7484;49.906;9.058;2023-05-21T07:25:35;21.30;99.90
14786;DHT22;7484;49.906;9.058;2023-05-21T07:28:03;21.40;99.90
14786;DHT22;7484;49.906;9.058;2023-05-21T07:30:30;21.40;99.90
14786;DHT22;7484;49.906;9.058;2023-05-21T07:32:57;21.50;99.90
14786;DHT22;7484;49.906;9.058;2023-05-21T07:35:25;21.70;99.90
14786;DHT22;7484;49.906;9.058;2023-05-21T07:37:52;21.70;99.90
14786;DHT22;7484;49.906;9.058;2023-05-21T07:40:19;21.80;99.90
14786;DHT22;7484;49.906;9.058;2023-05-21T07:42:46;21.90;99.90
14786;DHT22;7484;49.906;9.058;2023-05-21T07:45:14;22.00;99.90
14786;DHT22;7484;49.906;9.058;2023-05-21T07:47:43;22.00;99.90
14786;DHT22;7484;49.906;9.058;2023-05-21T07:50:11;22.00;99.90
14786;DHT22;7484;49.906;9.058;2023-05-21T07:52:39;22.00;99.90
14786;DHT22;7484;49.906;9.058;2023-05-21T07:55:07;22.00;99.90
14786;DHT22;7484;49.906;9.058;2023-05-21T07:57:36;22.10;99.90
14786;DHT22;7484;49.906;9.058;2023-05-21T08:00:08;22.20;99.90
14786;DHT22;7484;49.906;9.058;2023-05-21T08:02:40;22.40;99.90
14786;DHT22;7484;49.906;9.058;2023-05-21T08:05:08;22.50;99.90
14786;DHT22;7484;49.906;9.058;2023-05-21T08:07:36;22.40;99.90
14786;DHT22;7484;49.906;9.058;2023-05-21T08:10:06;22.40;99.90
14786;DHT22;7484;49.906;9.058;2023-05-21T08:12:34;22.40;99.90
14786;DHT22;7484;49.906;9.058;2023-05-21T08:15:02;22.50;99.90
14786;DHT22;7484;49.906;9.058;2023-05-21T08:17:30;22.50;99.90
14786;DHT22;7484;49.906;9.058;2023-05-21T08:19:57;22.60;99.90
14786;DHT22;7484;49.906;9.058;2023-05-21T08:22:23;22.70;99.90
14786;DHT22;7484;49.906;9.058;2023-05-21T08:24:50;22.70;99.90
14786;DHT22;7484;49.906;9.058;2023-05-21T08:27:18;22.60;99.90
14786;DHT22;7484;49.906;9.058;2023-05-21T08:29:45;22.60;99.90
14786;DHT22;7484;49.906;9.058;2023-05-21T08:32:12;22.70;99.90
14786;DHT22;7484;49.906;9.058;2023-05-21T08:34:39;22.60;99.90
14786;DHT22;7484;49.906;9.058;2023-05-21T08:37:20;22.60;99.90
14786;DHT22;7484;49.906;9.058;2023-05-21T08:40:06;22.70;99.90
14786;DHT22;7484;49.906;9.058;2023-05-21T08:42:42;22.80;99.90
14786;DHT22;7484;49.906;9.058;2023-05-21T08:45:18;22.90;99.90
14786;DHT22;7484;49.906;9.058;2023-05-21T08:47:45;23.00;99.90
14786;DHT22;7484;49.906;9.058;2023-05-21T08:50:16;23.20;99.90
14786;DHT22;7484;49.906;9.058;2023-05-21T08:52:44;23.30;99.90
14786;DHT22;7484;49.906;9.058;2023-05-21T08:55:11;23.40;99.90
14786;DHT22;7484;49.906;9.058;2023-05-21T08:57:42;23.40;99.90
14786;DHT22;7484;49.906;9.058;2023-05-21T09:00:10;23.50;99.90
14786;DHT22;7484;49.906;9.058;2023-05-21T09:02:39;23.50;99.90
14786;DHT22;7484;49.906;9.058;2023-05-21T09:05:08;23.70;99.90
14786;DHT22;7484;49.906;9.058;2023-05-21T09:07:38;23.70;99.90
14786;DHT22;7484;49.906;9.058;2023-05-21T09:10:28;23.70;99.90
14786;DHT22;7484;49.906;9.058;2023-05-21T09:12:59;23.70;99.90
14786;DHT22;7484;49.906;9.058;2023-05-21T09:15:26;23.70;99.90
14786;DHT22;7484;49.906;9.058;2023-05-21T09:17:53;23.70;99.90
14786;DHT22;7484;49.906;9.058;2023-05-21T09:20:52;23.70;99.90
14786;DHT22;7484;49.906;9.058;2023-05-21T09:23:21;23.70;99.90
14786;DHT22;7484;49.906;9.058;2023-05-21T09:25:48;23.90;99.90
14786;DHT22;7484;49.906;9.058;2023-05-21T09:28:24;24.10;99.90
14786;DHT22;7484;49.906;9.058;2023-05-21T09:30:51;24.30;99.90
14786;DHT22;7484;49.906;9.058;2023-05-21T09:33:25;24.40;99.90
14786;DHT22;7484;49.906;9.058;2023-05-21T09:35:54;24.80;99.90
14786;DHT22;7484;49.906;9.058;2023-05-21T09:38:21;25.20;99.90
14786;DHT22;7484;49.906;9.058;2023-05-21T09:40:48;25.40;99.90
14786;DHT22;7484;49.906;9.058;2023-05-21T09:43:16;25.50;99.90
14786;DHT22;7484;49.906;9.058;2023-05-21T09:45:51;25.80;99.90
14786;DHT22;7484;49.906;9.058;2023-05-21T09:48:33;25.90;99.90
14786;DHT22;7484;49.906;9.058;2023-05-21T09:51:09;25.80;99.90
14786;DHT22;7484;49.906;9.058;2023-05-21T09:53:42;25.70;99.90
14786;DHT22;7484;49.906;9.058;2023-05-21T09:56:09;25.80;99.90
14786;DHT22;7484;49.906;9.058;2023-05-21T09:58:37;26.00;99.90
14786;DHT22;7484;49.906;9.058;2023-05-21T10:01:05;26.20;99.90
14786;DHT22;7484;49.906;9.058;2023-05-21T10:03:32;26.30;99.90
14786;DHT22;7484;49.906;9.058;2023-05-21T10:06:06;26.10;99.90
14786;DHT22;7484;49.906;9.058;2023-05-21T10:08:35;26.20;99.90
14786;DHT22;7484;49.906;9.058;2023-05-21T10:11:03;26.20;99.90
14786;DHT22;7484;49.906;9.058;2023-05-21T10:13:31;26.50;99.90
14786;DHT22;7484;49.906;9.058;2023-05-21T10:16:01;26.70;99.90
14786;DHT22;7484;49.906;9.058;2023-05-21T10:18:31;26.90;99.80
14786;DHT22;7484;49.906;9.058;2023-05-21T10:20:59;27.30;99.70
14786;DHT22;7484;49.906;9.058;2023-05-21T10:23:27;27.60;99.30
14786;DHT22;7484;49.906;9.058;2023-05-21T10:25:54;27.70;98.20
14786;DHT22;7484;49.906;9.058;2023-05-21T10:28:21;27.70;98.10
14786;DHT22;7484;49.906;9.058;2023-05-21T10:30:49;27.40;97.60
14786;DHT22;7484;49.906;9.058;2023-05-21T10:33:19;27.20;98.00
14786;DHT22;7484;49.906;9.058;2023-05-21T10:35:50;27.50;97.60
14786;DHT22;7484;49.906;9.058;2023-05-21T10:38:18;27.40;96.90
14786;DHT22;7484;49.906;9.058;2023-05-21T10:40:46;27.60;97.20
14786;DHT22;7484;49.906;9.058;2023-05-21T10:43:37;27.70;96.60
14786;DHT22;7484;49.906;9.058;2023-05-21T10:46:20;27.70;96.10
14786;DHT22;7484;49.906;9.058;2023-05-21T10:48:59;27.50;96.50
14786;DHT22;7484;49.906;9.058;2023-05-21T10:51:37;27.60;96.40
14786;DHT22;7484;49.906;9.058;2023-05-21T10:54:45;27.70;96.40
14786;DHT22;7484;49.906;9.058;2023-05-21T10:57:23;27.70;96.50
14786;DHT22;7484;49.906;9.058;2023-05-21T10:59:57;27.70;96.20
14786;DHT22;7484;49.906;9.058;2023-05-21T11:02:25;27.60;95.50
14786;DHT22;7484;49.906;9.058;2023-05-21T11:04:57;27.60;95.00
14786;DHT22;7484;49.906;9.058;2023-05-21T11:07:51;27.50;95.20
14786;DHT22;7484;49.906;9.058;2023-05-21T11:10:29;27.80;95.20
14786;DHT22;7484;49.906;9.058;2023-05-21T11:13:11;27.70;94.50
14786;DHT22;7484;49.906;9.058;2023-05-21T11:16:06;27.80;94.20
14786;DHT22;7484;49.906;9.058;2023-05-21T11:19:01;27.80;93.50
14786;DHT22;7484;49.906;9.058;2023-05-21T11:21:29;28.00;93.60
14786;DHT22;7484;49.906;9.058;2023-05-21T11:24:01;28.10;92.30
14786;DHT22;7484;49.906;9.058;2023-05-21T11:26:58;27.90;92.10
14786;DHT22;7484;49.906;9.058;2023-05-21T11:29:16;28.10;92.60
14786;DHT22;7484;49.906;9.058;2023-05-21T11:31:45;28.70;92.60
14786;DHT22;7484;49.906;9.058;2023-05-21T11:34:13;28.50;91.90
14786;DHT22;7484;49.906;9.058;2023-05-21T11:36:41;28.30;92.60
14786;DHT22;7484;49.906;9.058;2023-05-21T11:39:12;28.50;93.10
14786;DHT22;7484;49.906;9.058;2023-05-21T11:41:52;28.40;93.60
14786;DHT22;7484;49.906;9.058;2023-05-21T11:44:37;28.20;92.40
14786;DHT22;7484;49.906;9.058;2023-05-21T11:47:04;27.90;92.40
14786;DHT22;7484;49.906;9.058;2023-05-21T11:49:31;28.10;92.10
14786;DHT22;7484;49.906;9.058;2023-05-21T11:51:59;28.30;92.50
14786;DHT22;7484;49.906;9.058;2023-05-21T11:54:28;28.50;92.20
14786;DHT22;7484;49.906;9.058;2023-05-21T11:56:59;28.60;92.00
14786;DHT22;7484;49.906;9.058;2023-05-21T11:59:26;28.60;91.90
14786;DHT22;7484;49.906;9.058;2023-05-21T12:01:53;28.60;91.60
14786;DHT22;7484;49.906;9.058;2023-05-21T12:04:21;28.50;91.50
14786;DHT22;7484;49.906;9.058;2023-05-21T12:06:48;28.40;92.20
14786;DHT22;7484;49.906;9.058;2023-05-21T12:09:16;28.50;91.50
14786;DHT22;7484;49.906;9.058;2023-05-21T12:11:44;28.30;92.50
14786;DHT22;7484;49.906;9.058;2023-05-21T12:14:11;28.50;92.00
14786;DHT22;7484;49.906;9.058;2023-05-21T12:16:38;28.60;91.70
14786;DHT22;7484;49.906;9.058;2023-05-21T12:19:05;28.90;91.40
14786;DHT22;7484;49.906;9.058;2023-05-21T12:21:32;29.20;90.80
14786;DHT22;7484;49.906;9.058;2023-05-21T12:24:00;29.30;90.00
14786;DHT22;7484;49.906;9.058;2023-05-21T12:26:27;29.30;89.60
14786;DHT22;7484;49.906;9.058;2023-05-21T12:28:58;29.20;88.50
14786;DHT22;7484;49.906;9.058;2023-05-21T12:31:25;29.20;89.10
14786;DHT22;7484;49.906;9.058;2023-05-21T12:33:52;29.20;88.70
14786;DHT22;7484;49.906;9.058;2023-05-21T12:36:25;29.20;89.20
14786;DHT22;7484;49.906;9.058;2023-05-21T12:38:52;29.30;89.20
14786;DHT22;7484;49.906;9.058;2023-05-21T12:41:20;29.60;86.90
14786;DHT22;7484;49.906;9.058;2023-05-21T12:43:48;29.90;87.60
14786;DHT22;7484;49.906;9.058;2023-05-21T12:46:17;30.20;88.10
14786;DHT22;7484;49.906;9.058;2023-05-21T12:48:52;30.50;85.30
14786;DHT22;7484;49.906;9.058;2023-05-21T12:51:20;30.60;82.30
14786;DHT22;7484;49.906;9.058;2023-05-21T12:53:47;30.50;82.10
14786;DHT22;7484;49.906;9.058;2023-05-21T12:56:15;30.40;84.20
14786;DHT22;7484;49.906;9.058;2023-05-21T12:58:42;30.20;84.20
14786;DHT22;7484;49.906;9.058;2023-05-21T13:01:10;30.20;84.00
14786;DHT22;7484;49.906;9.058;2023-05-21T13:03:40;30.20;83.70
14786;DHT22;7484;49.906;9.058;2023-05-21T13:06:07;30.30;82.00
14786;DHT22;7484;49.906;9.058;2023-05-21T13:08:34;30.30;82.00
14786;DHT22;7484;49.906;9.058;2023-05-21T13:11:01;30.40;81.70
14786;DHT22;7484;49.906;9.058;2023-05-21T13:13:28;30.60;80.80
14786;DHT22;7484;49.906;9.058;2023-05-21T13:15:55;30.70;79.80
14786;DHT22;7484;49.906;9.058;2023-05-21T13:18:25;30.60;79.30
14786;DHT22;7484;49.906;9.058;2023-05-21T13:20:53;30.50;78.30
14786;DHT22;7484;49.906;9.058;2023-05-21T13:23:19;30.50;79.30
14786;DHT22;7484;49.906;9.058;2023-05-21T13:25:46;30.50;77.90
14786;DHT22;7484;49.906;9.058;2023-05-21T13:28:13;30.60;77.90
14786;DHT22;7484;49.906;9.058;2023-05-21T13:30:41;30.70;78.00
14786;DHT22;7484;49.906;9.058;2023-05-21T13:33:08;30.40;75.30
14786;DHT22;7484;49.906;9.058;2023-05-21T13:35:36;30.50;75.50
14786;DHT22;7484;49.906;9.058;2023-05-21T13:38:04;30.70;74.70
14786;DHT22;7484;49.906;9.058;2023-05-21T13:40:31;30.90;71.70
14786;DHT22;7484;49.906;9.058;2023-05-21T13:42:58;30.70;70.80
14786;DHT22;7484;49.906;9.058;2023-05-21T13:45:25;30.70;71.20
14786;DHT22;7484;49.906;9.058;2023-05-21T13:47:53;30.80;72.10
14786;DHT22;7484;49.906;9.058;2023-05-21T13:50:20;30.90;72.10
14786;DHT22;7484;49.906;9.058;2023-05-21T13:52:47;30.80;75.00
14786;DHT22;7484;49.906;9.058;2023-05-21T13:55:15;30.60;73.00
14786;DHT22;7484;49.906;9.058;2023-05-21T13:57:43;30.40;73.70
14786;DHT22;7484;49.906;9.058;2023-05-21T14:00:11;30.40;73.80
14786;DHT22;7484;49.906;9.058;2023-05-21T14:02:40;30.40;74.60
14786;DHT22;7484;49.906;9.058;2023-05-21T14:05:08;30.40;74.60
14786;DHT22;7484;49.906;9.058;2023-05-21T14:07:34;30.50;74.80
14786;DHT22;7484;49.906;9.058;2023-05-21T14:10:01;30.60;75.10
14786;DHT22;7484;49.906;9.058;2023-05-21T14:12:30;30.70;75.40
14786;DHT22;7484;49.906;9.058;2023-05-21T14:14:57;30.50;75.10
14786;DHT22;7484;49.906;9.058;2023-05-21T14:17:24;30.40;74.70
14786;DHT22;7484;49.906;9.058;2023-05-21T14:19:51;30.10;77.30
14786;DHT22;7484;49.906;9.058;2023-05-21T14:22:17;30.10;76.40
14786;DHT22;7484;49.906;9.058;2023-05-21T14:24:44;30.00;76.80
14786;DHT22;7484;49.906;9.058;2023-05-21T14:27:11;29.80;76.90
14786;DHT22;7484;49.906;9.058;2023-05-21T14:29:39;29.60;78.50
14786;DHT22;7484;49.906;9.058;2023-05-21T14:32:06;29.50;78.50
14786;DHT22;7484;49.906;9.058;2023-05-21T14:34:33;29.50;79.60
14786;DHT22;7484;49.906;9.058;2023-05-21T14:37:00;29.50;78.20
14786;DHT22;7484;49.906;9.058;2023-05-21T14:39:27;29.50;78.50
14786;DHT22;7484;49.906;9.058;2023-05-21T14:41:53;29.60;79.20
14786;DHT22;7484;49.906;9.058;2023-05-21T14:44:20;29.70;77.30
14786;DHT22;7484;49.906;9.058;2023-05-21T14:46:48;29.80;78.40
14786;DHT22;7484;49.906;9.058;2023-05-21T14:49:15;29.90;77.40
14786;DHT22;7484;49.906;9.058;2023-05-21T14:51:42;29.80;76.70
14786;DHT22;7484;49.906;9.058;2023-05-21T14:54:09;30.00;76.50
14786;DHT22;7484;49.906;9.058;2023-05-21T14:56:36;30.10;74.90
14786;DHT22;7484;49.906;9.058;2023-05-21T14:59:02;30.10;74.00
14786;DHT22;7484;49.906;9.058;2023-05-21T15:01:30;30.20;74.90
14786;DHT22;7484;49.906;9.058;2023-05-21T15:03:58;30.10;74.40
14786;DHT22;7484;49.906;9.058;2023-05-21T15:06:26;30.10;74.30
14786;DHT22;7484;49.906;9.058;2023-05-21T15:08:53;30.00;75.20
14786;DHT22;7484;49.906;9.058;2023-05-21T15:11:20;30.00;76.00
14786;DHT22;7484;49.906;9.058;2023-05-21T15:13:46;29.60;74.50
14786;DHT22;7484;49.906;9.058;2023-05-21T15:16:13;29.40;75.40
14786;DHT22;7484;49.906;9.058;2023-05-21T15:18:40;29.20;72.30
14786;DHT22;7484;49.906;9.058;2023-05-21T15:21:08;29.10;74.40
14786;DHT22;7484;49.906;9.058;2023-05-21T15:23:35;29.00;74.60
14786;DHT22;7484;49.906;9.058;2023-05-21T15:26:01;28.80;75.30
14786;DHT22;7484;49.906;9.058;2023-05-21T15:28:28;28.50;75.00
14786;DHT22;7484;49.906;9.058;2023-05-21T15:30:55;28.40;75.80
14786;DHT22;7484;49.906;9.058;2023-05-21T15:33:22;28.50;76.40
14786;DHT22;7484;49.906;9.058;2023-05-21T15:35:49;28.50;78.30
14786;DHT22;7484;49.906;9.058;2023-05-21T15:38:17;28.60;75.30
14786;DHT22;7484;49.906;9.058;2023-05-21T15:40:43;28.60;76.30
14786;DHT22;7484;49.906;9.058;2023-05-21T15:43:10;28.60;74.90
14786;DHT22;7484;49.906;9.058;2023-05-21T15:45:37;28.50;74.90
14786;DHT22;7484;49.906;9.058;2023-05-21T15:48:04;28.40;74.20
14786;DHT22;7484;49.906;9.058;2023-05-21T15:50:31;28.30;75.10
14786;DHT22;7484;49.906;9.058;2023-05-21T15:52:59;28.20;71.90
14786;DHT22;7484;49.906;9.058;2023-05-21T15:55:30;28.10;70.90